ADDS TAF Data INFO
IDs: Format: Raw Decoded Include METARs

Data at: 2152 UTC 24 Feb 2018

KDMN 242053Z AUTO 29011G18KT 10SM CLR 11/M14 A3007 RMK AO2 SLP159 T01061144 58027

KDMN 241720Z 2418/2518 31015G20KT P6SM SKC
  FM242000 27012KT P6SM SKC